createdAt,value
2023-04-08T00:00:26.328Z,101949.72
2023-04-08T00:02:52.950Z,101950.69
2023-04-08T00:05:19.490Z,101955.44
2023-04-08T00:07:45.975Z,101955.44
2023-04-08T00:10:12.475Z,101952.28
2023-04-08T00:12:38.976Z,101952.63
2023-04-08T00:15:07.644Z,101948.03
2023-04-08T00:17:34.191Z,101956.09
2023-04-08T00:20:00.754Z,101958.88
2023-04-08T00:22:27.231Z,101952.75
2023-04-08T00:24:53.767Z,101951.06
2023-04-08T00:27:20.326Z,101962.59
2023-04-08T00:29:46.867Z,101954.44
2023-04-08T00:32:14.805Z,101956.34
2023-04-08T00:34:41.300Z,101958.03
2023-04-08T00:37:07.821Z,101961.75
2023-04-08T00:39:34.340Z,101959.22
2023-04-08T00:42:00.858Z,101959.84
2023-04-08T00:44:27.451Z,101967.53
2023-04-08T00:46:54.276Z,101963.34
2023-04-08T00:49:22.125Z,101963.56
2023-04-08T00:51:48.610Z,101970.81
2023-04-08T00:54:15.178Z,101963.22
2023-04-08T00:56:43.761Z,101966.03
2023-04-08T00:59:10.393Z,101959.38
2023-04-08T01:01:47.420Z,101968.16
2023-04-08T01:04:26.737Z,101966.94
2023-04-08T01:06:59.577Z,101968.13
2023-04-08T01:09:29.894Z,101976.38
2023-04-08T01:11:58.456Z,101970.28
2023-04-08T01:14:28.609Z,101969.28
2023-04-08T01:16:56.820Z,101971.94
2023-04-08T01:19:29.440Z,101970.88
2023-04-08T01:22:05.432Z,101971.72
2023-04-08T01:24:36.521Z,101974.38
2023-04-08T01:27:06.854Z,101969.91
2023-04-08T01:29:34.871Z,101967.50
2023-04-08T01:32:02.708Z,101968.13
2023-04-08T01:34:30.287Z,101979.03
2023-04-08T01:36:58.558Z,101974.59
2023-04-08T01:39:25.774Z,101970.28
2023-04-08T01:41:54.442Z,101978.94
2023-04-08T01:44:24.139Z,101980.97
2023-04-08T01:46:52.868Z,101983.63
2023-04-08T01:49:20.515Z,101986.59
2023-04-08T01:51:48.539Z,101984.16
2023-04-08T01:54:15.164Z,101986.19
2023-04-08T01:56:42.449Z,101984.41
2023-04-08T01:59:11.663Z,101982.59
2023-04-08T02:01:41.890Z,101987.88
2023-04-08T02:04:08.529Z,101987.75
2023-04-08T02:06:35.874Z,101988.28
2023-04-08T02:09:02.391Z,101995.56
2023-04-08T02:11:28.907Z,101982.44
2023-04-08T02:13:55.828Z,101988.41
2023-04-08T02:16:24.132Z,101990.94
2023-04-08T02:18:58.288Z,101988.19
2023-04-08T02:21:31.722Z,101994.09
2023-04-08T02:24:00.157Z,101997.34
2023-04-08T02:26:27.692Z,101996.03
2023-04-08T02:28:56.424Z,101991.06
2023-04-08T02:31:24.512Z,101991.13
2023-04-08T02:33:52.742Z,101994.03
2023-04-08T02:36:19.586Z,101992.66
2023-04-08T02:38:48.320Z,101996.16
2023-04-08T02:41:15.048Z,101998.69
2023-04-08T02:43:41.622Z,102002.06
2023-04-08T02:46:09.187Z,102002.81
2023-04-08T02:48:35.715Z,102004.63
2023-04-08T02:51:03.806Z,101993.88
2023-04-08T02:53:30.283Z,101998.47
2023-04-08T02:55:56.857Z,102005.56
2023-04-08T02:58:23.348Z,102001.22
2023-04-08T03:00:49.905Z,102004.72
2023-04-08T03:03:16.545Z,102002.91
2023-04-08T03:05:43.141Z,102007.97
2023-04-08T03:08:10.998Z,102008.91
2023-04-08T03:10:37.533Z,102008.09
2023-04-08T03:13:04.048Z,102007.13
2023-04-08T03:15:30.539Z,102007.00
2023-04-08T03:17:57.045Z,102005.13
2023-04-08T03:20:23.590Z,102006.84
2023-04-08T03:22:50.137Z,102000.78
2023-04-08T03:25:18.198Z,102004.28
2023-04-08T03:27:44.786Z,102002.38
2023-04-08T03:30:11.562Z,102006.16
2023-04-08T03:32:38.254Z,102000.16
2023-04-08T03:35:05.706Z,102002.06
2023-04-08T03:37:32.527Z,102017.13
2023-04-08T03:39:59.031Z,102017.13
2023-04-08T03:42:27.030Z,102011.81
2023-04-08T03:44:53.509Z,102014.22
2023-04-08T03:47:20.037Z,102009.16
2023-04-08T03:49:46.496Z,102012.66
2023-04-08T03:52:13.014Z,102016.06
2023-04-08T03:54:39.485Z,102014.69
2023-04-08T03:57:05.961Z,102013.00
2023-04-08T03:59:33.791Z,102004.09
2023-04-08T04:02:00.316Z,102006.97
2023-04-08T04:04:26.911Z,102001.06
2023-04-08T04:06:53.561Z,102015.16
2023-04-08T04:09:20.069Z,102010.81
2023-04-08T04:11:46.623Z,102007.53
2023-04-08T04:14:13.161Z,102008.38
2023-04-08T04:16:40.990Z,102013.88
2023-04-08T04:19:07.474Z,102001.59
2023-04-08T04:21:33.973Z,102019.16
2023-04-08T04:24:00.499Z,102020.75
2023-04-08T04:26:27.044Z,102019.69
2023-04-08T04:28:53.542Z,102023.19
2023-04-08T04:31:20.845Z,102025.28
2023-04-08T04:33:49.209Z,102036.31
2023-04-08T04:36:15.885Z,102022.41
2023-04-08T04:38:42.391Z,102027.69
2023-04-08T04:41:08.889Z,102025.06
2023-04-08T04:43:35.523Z,102031.09
2023-04-08T04:46:02.115Z,102036.06
2023-04-08T04:48:28.588Z,102041.25
2023-04-08T04:50:56.694Z,102041.34
2023-04-08T04:53:23.196Z,102035.41
2023-04-08T04:55:50.218Z,102038.78
2023-04-08T04:58:17.014Z,102043.91
2023-04-08T05:00:43.515Z,102044.41
2023-04-08T05:03:10.265Z,102051.25
2023-04-08T05:05:36.920Z,102041.53
2023-04-08T05:08:05.209Z,102057.25
2023-04-08T05:10:31.756Z,102059.47
2023-04-08T05:12:58.276Z,102065.50
2023-04-08T05:15:24.838Z,102057.25
2023-04-08T05:17:51.401Z,102066.97
2023-04-08T05:20:18.108Z,102067.91
2023-04-08T05:22:44.575Z,102072.28
2023-04-08T05:25:12.539Z,102073.03
2023-04-08T05:27:39.041Z,102077.75
2023-04-08T05:30:06.948Z,102079.69
2023-04-08T05:32:33.505Z,102081.25
2023-04-08T05:35:02.383Z,102078.31
2023-04-08T05:37:28.958Z,102081.59
2023-04-08T05:39:55.404Z,102080.09
2023-04-08T05:42:23.235Z,102082.88
2023-04-08T05:44:49.726Z,102085.50
2023-04-08T05:47:16.231Z,102095.31
2023-04-08T05:49:42.793Z,102090.66
2023-04-08T05:52:09.322Z,102098.59
2023-04-08T05:54:35.804Z,102100.19
2023-04-08T05:57:02.312Z,102096.16
2023-04-08T05:59:30.176Z,102099.28
2023-04-08T06:01:56.879Z,102107.31
2023-04-08T06:04:23.712Z,102106.88
2023-04-08T06:06:50.412Z,102107.50
2023-04-08T06:09:16.922Z,102108.97
2023-04-08T06:11:43.478Z,102109.69
2023-04-08T06:14:10.013Z,102114.66
2023-04-08T06:16:37.914Z,102114.09
2023-04-08T06:19:04.426Z,102117.69
2023-04-08T06:21:30.974Z,102116.84
2023-04-08T06:23:57.514Z,102119.41
2023-04-08T06:26:24.041Z,102128.94
2023-04-08T06:28:50.756Z,102120.56
2023-04-08T06:31:17.429Z,102125.50
2023-04-08T06:33:45.276Z,102128.25
2023-04-08T06:36:11.892Z,102132.69
2023-04-08T06:38:38.530Z,102135.69
2023-04-08T06:41:05.545Z,102138.75
2023-04-08T06:43:32.536Z,102142.75
2023-04-08T06:45:59.456Z,102146.75
2023-04-08T06:48:26.332Z,102139.06
2023-04-08T06:50:54.731Z,102141.06
2023-04-08T06:53:22.590Z,102141.28
2023-04-08T06:55:49.059Z,102148.72
2023-04-08T06:58:15.560Z,102147.75
2023-04-08T07:00:42.380Z,102153.56
2023-04-08T07:03:08.988Z,102146.09
2023-04-08T07:05:36.169Z,102156.97
2023-04-08T07:08:04.152Z,102158.19
2023-04-08T07:10:30.724Z,102162.69
2023-04-08T07:12:57.254Z,102171.75
2023-04-08T07:15:23.879Z,102175.94
2023-04-08T07:17:50.409Z,102186.38
2023-04-08T07:20:17.052Z,102176.75
2023-04-08T07:22:43.588Z,102185.66
2023-04-08T07:25:11.567Z,102191.47
2023-04-08T07:27:38.059Z,102191.69
2023-04-08T07:30:05.738Z,102194.59
2023-04-08T07:32:32.837Z,102201.50
2023-04-08T07:34:59.694Z,102192.22
2023-04-08T07:37:26.233Z,102194.53
2023-04-08T07:39:52.746Z,102194.47
2023-04-08T07:42:20.805Z,102193.69
2023-04-08T07:44:47.321Z,102196.69
2023-04-08T07:47:13.882Z,102197.31
2023-04-08T07:49:40.406Z,102196.59
2023-04-08T07:52:06.995Z,102200.38
2023-04-08T07:54:33.976Z,102198.06
2023-04-08T07:57:00.618Z,102207.09
2023-04-08T07:59:29.090Z,102204.84
2023-04-08T08:01:55.650Z,102200.00
2023-04-08T08:04:22.406Z,102205.63
2023-04-08T08:06:49.050Z,102211.41
2023-04-08T08:09:15.566Z,102216.13
2023-04-08T08:11:42.042Z,102217.50
2023-04-08T08:14:08.558Z,102218.13
2023-04-08T08:16:36.638Z,102219.59
2023-04-08T08:19:03.256Z,102226.81
2023-04-08T08:21:29.735Z,102223.09
2023-04-08T08:23:56.226Z,102233.03
2023-04-08T08:26:22.817Z,102235.59
2023-04-08T08:28:49.284Z,102234.22
2023-04-08T08:31:15.780Z,102234.78
2023-04-08T08:33:43.630Z,102231.28
2023-04-08T08:36:10.164Z,102233.81
2023-04-08T08:38:36.784Z,102231.47
2023-04-08T08:41:03.386Z,102238.41
2023-04-08T08:43:30.221Z,102237.59
2023-04-08T08:45:56.756Z,102235.97
2023-04-08T08:48:23.605Z,102245.03
2023-04-08T08:50:51.685Z,102238.03
2023-04-08T08:53:18.310Z,102242.78
2023-04-08T08:56:13.435Z,102245.63
2023-04-08T08:58:31.444Z,102242.97
2023-04-08T09:00:57.972Z,102247.84
2023-04-08T09:03:26.508Z,102242.31
2023-04-08T09:05:56.505Z,102249.69
2023-04-08T09:08:23.905Z,102249.31
2023-04-08T09:10:50.450Z,102251.13
2023-04-08T09:13:16.991Z,102255.84
2023-04-08T09:16:02.101Z,102257.03
2023-04-08T09:18:28.645Z,102259.56
2023-04-08T09:20:56.519Z,102253.28
2023-04-08T09:23:22.987Z,102261.50
2023-04-08T09:25:49.570Z,102267.53
2023-04-08T09:28:19.862Z,102263.44
2023-04-08T09:30:46.433Z,102266.94
2023-04-08T09:33:12.978Z,102260.91
2023-04-08T09:35:39.586Z,102269.97
2023-04-08T09:38:07.462Z,102272.63
2023-04-08T09:40:35.068Z,102269.34
2023-04-08T09:43:04.773Z,102273.81
2023-04-08T09:45:33.829Z,102276.34
2023-04-08T09:48:16.406Z,102274.63
2023-04-08T09:50:47.360Z,102275.59
2023-04-08T09:53:21.010Z,102284.91
2023-04-08T09:55:53.285Z,102290.44
2023-04-08T09:58:25.351Z,102293.22
2023-04-08T10:00:53.967Z,102293.09
2023-04-08T10:03:27.826Z,102289.34
2023-04-08T10:05:55.269Z,102285.09
2023-04-08T10:08:24.541Z,102287.88
2023-04-08T10:10:51.305Z,102282.41
2023-04-08T10:13:18.354Z,102280.97
2023-04-08T10:15:44.922Z,102285.09
2023-04-08T10:18:30.809Z,102291.13
2023-04-08T10:20:57.271Z,102281.34
2023-04-08T10:23:55.143Z,102282.09
2023-04-08T10:26:32.610Z,102285.84
2023-04-08T10:29:32.676Z,102281.97
2023-04-08T10:31:59.543Z,102274.47
2023-04-08T10:34:26.814Z,102282.41
2023-04-08T10:36:54.933Z,102272.50
2023-04-08T10:39:22.853Z,102273.94
2023-04-08T10:41:50.511Z,102273.22
2023-04-08T10:44:17.761Z,102269.69
2023-04-08T10:46:44.509Z,102261.88
2023-04-08T10:49:10.997Z,102257.63
2023-04-08T10:51:38.364Z,102260.28
2023-04-08T10:54:08.522Z,102257.09
2023-04-08T10:56:37.201Z,102252.44
2023-04-08T10:59:04.922Z,102244.44
2023-04-08T11:01:38.492Z,102250.84
2023-04-08T11:04:07.172Z,102249.41
2023-04-08T11:06:36.801Z,102249.19
2023-04-08T11:09:03.711Z,102249.78
2023-04-08T11:11:30.747Z,102242.16
2023-04-08T11:13:58.983Z,102245.59
2023-04-08T11:16:26.744Z,102248.78
2023-04-08T11:18:53.608Z,102244.75
2023-04-08T11:21:20.208Z,102242.63
2023-04-08T11:23:49.963Z,102248.44
2023-04-08T11:26:17.109Z,102250.13
2023-04-08T11:28:43.916Z,102250.03
2023-04-08T11:31:12.741Z,102252.59
2023-04-08T11:33:45.425Z,102254.06
2023-04-08T11:36:12.776Z,102249.84
2023-04-08T11:38:40.015Z,102258.44
2023-04-08T11:41:06.532Z,102261.25
2023-04-08T11:43:33.226Z,102258.81
2023-04-08T11:45:59.778Z,102259.31
2023-04-08T11:48:27.762Z,102259.72
2023-04-08T11:51:03.127Z,102253.19
2023-04-08T11:53:29.790Z,102249.53
2023-04-08T11:55:56.321Z,102251.78
2023-04-08T11:58:22.889Z,102252.66
2023-04-08T12:00:49.351Z,102252.38
2023-04-08T12:03:15.906Z,102254.03
2023-04-08T12:05:43.807Z,102252.38
2023-04-08T12:08:10.320Z,102253.47
2023-04-08T12:10:36.812Z,102250.25
2023-04-08T12:13:03.299Z,102259.94
2023-04-08T12:15:30.063Z,102249.00
2023-04-08T12:17:56.639Z,102253.22
2023-04-08T12:20:23.176Z,102255.31
2023-04-08T12:22:51.036Z,102253.63
2023-04-08T12:25:17.572Z,102248.41
2023-04-08T12:27:44.089Z,102245.72
2023-04-08T12:30:11.711Z,102236.06
2023-04-08T12:32:38.382Z,102252.34
2023-04-08T12:35:05.289Z,102246.44
2023-04-08T12:37:31.841Z,102248.81
2023-04-08T12:39:59.706Z,102244.16
2023-04-08T12:42:26.201Z,102245.81
2023-04-08T12:44:52.687Z,102236.13
2023-04-08T12:47:19.248Z,102236.81
2023-04-08T12:49:49.786Z,102234.28
2023-04-08T12:52:16.917Z,102236.94
2023-04-08T12:54:43.385Z,102224.66
2023-04-08T12:57:11.243Z,102228.06
2023-04-08T12:59:37.770Z,102229.47
2023-04-08T13:02:04.332Z,102227.78
2023-04-08T13:04:30.991Z,102233.69
2023-04-08T13:06:57.432Z,102231.19
2023-04-08T13:09:24.079Z,102234.91
2023-04-08T13:11:50.594Z,102217.81
2023-04-08T13:14:18.413Z,102222.72
2023-04-08T13:16:44.982Z,102217.50
2023-04-08T13:19:11.495Z,102220.81
2023-04-08T13:21:37.968Z,102218.69
2023-04-08T13:24:04.986Z,102216.63
2023-04-08T13:26:31.481Z,102208.84
2023-04-08T13:28:58.429Z,102203.50
2023-04-08T13:31:26.520Z,102211.69
2023-04-08T13:33:56.068Z,102209.75
2023-04-08T13:36:24.546Z,102207.25
2023-04-08T13:38:51.175Z,102202.81
2023-04-08T13:41:17.863Z,102207.19
2023-04-08T13:43:44.372Z,102207.88
2023-04-08T13:46:10.881Z,102213.00
2023-04-08T13:48:39.036Z,102213.88
2023-04-08T13:51:05.582Z,102210.50
2023-04-08T13:53:32.080Z,102212.19
2023-04-08T13:55:58.590Z,102209.53
2023-04-08T13:58:25.177Z,102224.13
2023-04-08T14:00:52.077Z,102216.41
2023-04-08T14:03:19.365Z,102221.16
2023-04-08T14:05:47.266Z,102218.66
2023-04-08T14:08:13.972Z,102210.22
2023-04-08T14:10:40.600Z,102211.91
2023-04-08T14:13:07.387Z,102206.69
2023-04-08T14:15:33.876Z,102209.09
2023-04-08T14:18:00.433Z,102204.31
2023-04-08T14:20:27.119Z,102203.19
2023-04-08T14:22:54.912Z,102208.97
2023-04-08T14:25:21.470Z,102211.50
2023-04-08T14:27:57.383Z,102205.72
2023-04-08T14:30:25.288Z,102207.69
2023-04-08T14:32:51.818Z,102210.50
2023-04-08T14:35:18.316Z,102209.50
2023-04-08T14:37:44.845Z,102205.31
2023-04-08T14:40:13.122Z,102214.97
2023-04-08T14:42:39.756Z,102206.53
2023-04-08T14:45:07.260Z,102213.47
2023-04-08T14:47:33.842Z,102202.22
2023-04-08T14:50:00.351Z,102206.00
2023-04-08T14:52:26.853Z,102199.97
2023-04-08T14:54:53.373Z,102202.91
2023-04-08T14:57:21.184Z,102194.59
2023-04-08T14:59:47.895Z,102195.25
2023-04-08T15:02:14.564Z,102191.28
2023-04-08T15:04:41.204Z,102196.00
2023-04-08T15:07:07.654Z,102193.66
2023-04-08T15:09:34.222Z,102198.66
2023-04-08T15:12:00.848Z,102191.97
2023-04-08T15:14:28.658Z,102187.59
2023-04-08T15:16:55.124Z,102186.94
2023-04-08T15:19:21.606Z,102179.13
2023-04-08T15:21:48.130Z,102186.72
2023-04-08T15:24:14.655Z,102179.91
2023-04-08T15:26:41.318Z,102173.41
2023-04-08T15:29:07.911Z,102165.75
2023-04-08T15:31:36.012Z,102172.78
2023-04-08T15:34:02.873Z,102173.50
2023-04-08T15:36:29.872Z,102173.25
2023-04-08T15:38:56.504Z,102173.06
2023-04-08T15:41:23.009Z,102172.84
2023-04-08T15:43:49.510Z,102174.75
2023-04-08T15:46:18.055Z,102177.91
2023-04-08T15:48:46.142Z,102187.09
2023-04-08T15:51:12.700Z,102184.50
2023-04-08T15:53:39.277Z,102182.97
2023-04-08T15:56:06.224Z,102185.72
2023-04-08T15:58:32.761Z,102184.72
2023-04-08T16:00:59.257Z,102186.00
2023-04-08T16:03:25.853Z,102187.88
2023-04-08T16:05:53.754Z,102188.00
2023-04-08T16:08:20.247Z,102188.50
2023-04-08T16:10:46.769Z,102196.56
2023-04-08T16:13:13.341Z,102190.22
2023-04-08T16:15:39.849Z,102195.69
2023-04-08T16:18:06.573Z,102186.72
2023-04-08T16:20:33.333Z,102189.16
2023-04-08T16:23:01.176Z,102189.59
2023-04-08T16:25:28.420Z,102184.84
2023-04-08T16:27:55.065Z,102195.53
2023-04-08T16:30:21.599Z,102202.59
2023-04-08T16:32:48.110Z,102197.84
2023-04-08T16:35:14.806Z,102201.06
2023-04-08T16:37:41.265Z,102198.53
2023-04-08T16:40:10.437Z,102199.41
2023-04-08T16:42:36.954Z,102204.59
2023-04-08T16:45:04.227Z,102205.84
2023-04-08T16:47:30.767Z,102198.44
2023-04-08T16:49:57.277Z,102205.00
2023-04-08T16:52:23.788Z,102207.06
2023-04-08T16:54:50.294Z,102203.69
2023-04-08T16:57:18.151Z,102204.25
2023-04-08T16:59:44.619Z,102203.56
2023-04-08T17:02:11.303Z,102209.00
2023-04-08T17:04:37.875Z,102209.00
2023-04-08T17:07:04.351Z,102207.31
2023-04-08T17:09:30.895Z,102209.97
2023-04-08T17:11:57.407Z,102212.75
2023-04-08T17:14:25.323Z,102213.06
2023-04-08T17:16:51.930Z,102215.72
2023-04-08T17:19:18.486Z,102213.84
2023-04-08T17:21:45.044Z,102210.31
2023-04-08T17:24:11.596Z,102212.56
2023-04-08T17:26:40.602Z,102210.56
2023-04-08T17:29:07.143Z,102212.53
2023-04-08T17:31:35.055Z,102225.38
2023-04-08T17:34:01.879Z,102219.47
2023-04-08T17:36:30.418Z,102219.16
2023-04-08T17:38:57.217Z,102223.22
2023-04-08T17:41:37.954Z,102216.34
2023-04-08T17:44:06.012Z,102217.56
2023-04-08T17:46:32.575Z,102225.31
2023-04-08T17:49:00.416Z,102220.09
2023-04-08T17:51:26.959Z,102228.47
2023-04-08T17:53:53.476Z,102222.59
2023-04-08T17:56:19.961Z,102225.50
2023-04-08T17:58:46.444Z,102225.50
2023-04-08T18:01:13.001Z,102220.84
2023-04-08T18:03:39.657Z,102218.19
2023-04-08T18:06:08.564Z,102223.50
2023-04-08T18:08:35.164Z,102232.47
2023-04-08T18:11:04.402Z,102222.19
2023-04-08T18:13:30.978Z,102231.44
2023-04-08T18:15:57.532Z,102236.88
2023-04-08T18:18:24.183Z,102237.00
2023-04-08T18:20:50.712Z,102238.19
2023-04-08T18:23:18.566Z,102239.69
2023-04-08T18:25:46.615Z,102251.31
2023-04-08T18:28:13.197Z,102243.88
2023-04-08T18:30:39.751Z,102249.31
2023-04-08T18:33:06.262Z,102248.94
2023-04-08T18:35:32.850Z,102249.47
2023-04-08T18:37:59.393Z,102251.94
2023-04-08T18:40:27.347Z,102255.94
2023-04-08T18:42:53.866Z,102255.34
2023-04-08T18:45:20.388Z,102252.94
2023-04-08T18:47:46.913Z,102249.94
2023-04-08T18:50:13.430Z,102251.00
2023-04-08T18:52:39.920Z,102253.81
2023-04-08T18:55:06.608Z,102256.59
2023-04-08T18:57:34.413Z,102257.69
2023-04-08T19:00:00.929Z,102259.03
2023-04-08T19:02:27.485Z,102248.53
2023-04-08T19:04:54.309Z,102260.25
2023-04-08T19:07:20.838Z,102261.69
2023-04-08T19:09:47.383Z,102250.38
2023-04-08T19:12:13.868Z,102261.25
2023-04-08T19:14:41.712Z,102262.22
2023-04-08T19:17:08.209Z,102257.00
2023-04-08T19:19:35.914Z,102258.94
2023-04-08T19:22:02.379Z,102266.44
2023-04-08T19:24:28.922Z,102268.28
2023-04-08T19:26:55.383Z,102262.34
2023-04-08T19:29:22.006Z,102260.91
2023-04-08T19:31:49.911Z,102263.81
2023-04-08T19:34:16.429Z,102271.78
2023-04-08T19:36:42.937Z,102270.19
2023-04-08T19:39:09.466Z,102269.25
2023-04-08T19:41:36.077Z,102274.66
2023-04-08T19:44:02.580Z,102276.38
2023-04-08T19:46:29.154Z,102281.06
2023-04-08T19:48:56.979Z,102277.31
2023-04-08T19:51:23.594Z,102281.69
2023-04-08T19:53:52.954Z,102281.91
2023-04-08T19:56:19.647Z,102277.31
2023-04-08T19:58:46.272Z,102280.00
2023-04-08T20:01:12.730Z,102278.19
2023-04-08T20:03:39.282Z,102281.44
2023-04-08T20:06:07.370Z,102291.00
2023-04-08T20:08:33.817Z,102290.72
2023-04-08T20:11:01.500Z,102287.84
2023-04-08T20:13:28.900Z,102291.94
2023-04-08T20:15:55.421Z,102294.34
2023-04-08T20:18:22.022Z,102301.13
2023-04-08T20:20:48.545Z,102294.72
2023-04-08T20:23:16.434Z,102299.91
2023-04-08T20:25:43.123Z,102298.81
2023-04-08T20:28:09.669Z,102294.22
2023-04-08T20:30:36.156Z,102296.03
2023-04-08T20:33:02.681Z,102289.75
2023-04-08T20:35:29.308Z,102288.78
2023-04-08T20:37:55.839Z,102289.84
2023-04-08T20:40:23.674Z,102290.72
2023-04-08T20:42:50.186Z,102285.38
2023-04-08T20:45:16.754Z,102288.28
2023-04-08T20:47:43.286Z,102286.34
2023-04-08T20:50:10.584Z,102283.69
2023-04-08T20:52:37.089Z,102282.00
2023-04-08T20:55:04.056Z,102286.22
2023-04-08T20:57:31.882Z,102275.84
2023-04-08T20:59:58.462Z,102274.88
2023-04-08T21:02:25.122Z,102268.47
2023-04-08T21:04:51.714Z,102271.38
2023-04-08T21:07:18.215Z,102272.34
2023-04-08T21:09:46.993Z,102277.91
2023-04-08T21:12:13.539Z,102280.56
2023-04-08T21:14:41.375Z,102283.81
2023-04-08T21:17:07.853Z,102276.22
2023-04-08T21:19:34.320Z,102284.19
2023-04-08T21:22:00.837Z,102277.06
2023-04-08T21:24:27.834Z,102278.88
2023-04-08T21:26:54.319Z,102276.22
2023-04-08T21:29:20.807Z,102280.81
2023-04-08T21:31:48.641Z,102285.28
2023-04-08T21:34:15.198Z,102283.47
2023-04-08T21:36:41.734Z,102279.25
2023-04-08T21:39:08.210Z,102287.09
2023-04-08T21:41:34.696Z,102291.00
2023-04-08T21:44:01.219Z,102275.16
2023-04-08T21:46:27.728Z,102282.16
2023-04-08T21:48:55.572Z,102287.34
2023-04-08T21:51:22.087Z,102287.34
2023-04-08T21:53:50.182Z,102289.28
2023-04-08T21:56:16.888Z,102291.00
2023-04-08T21:58:43.348Z,102284.09
2023-04-08T22:01:09.851Z,102285.91
2023-04-08T22:03:36.511Z,102285.06
2023-04-08T22:06:07.346Z,102284.09
2023-04-08T22:08:33.843Z,102283.50
2023-04-08T22:11:00.342Z,102279.25
2023-04-08T22:13:26.889Z,102281.19
2023-04-08T22:15:53.415Z,102287.34
2023-04-08T22:18:19.872Z,102283.03
2023-04-08T22:20:46.391Z,102278.19
2023-04-08T22:23:14.221Z,102282.75
2023-04-08T22:25:40.695Z,102284.00
2023-04-08T22:28:07.211Z,102280.59
2023-04-08T22:30:33.799Z,102281.56
2023-04-08T22:33:00.342Z,102286.75
2023-04-08T22:35:26.850Z,102272.75
2023-04-08T22:37:53.350Z,102277.22
2023-04-08T22:40:21.410Z,102274.44
2023-04-08T22:42:47.936Z,102268.28
2023-04-08T22:45:14.441Z,102269.13
2023-04-08T22:47:40.994Z,102276.00
2023-04-08T22:50:08.149Z,102280.22
2023-04-08T22:52:34.822Z,102282.88
2023-04-08T22:55:01.381Z,102279.38
2023-04-08T22:57:29.284Z,102274.78
2023-04-08T22:59:55.786Z,102282.75
2023-04-08T23:02:22.401Z,102278.19
2023-04-08T23:04:53.658Z,102282.75
2023-04-08T23:07:20.192Z,102281.06
2023-04-08T23:09:46.687Z,102282.75
2023-04-08T23:12:13.225Z,102279.13
2023-04-08T23:14:41.009Z,102277.22
2023-04-08T23:17:07.476Z,102276.25
2023-04-08T23:19:33.975Z,102273.72
2023-04-08T23:22:00.430Z,102283.25
2023-04-08T23:24:26.964Z,102280.09
2023-04-08T23:26:53.447Z,102275.63
2023-04-08T23:29:19.904Z,102273.81
2023-04-08T23:31:47.732Z,102280.09
2023-04-08T23:34:14.220Z,102279.25
2023-04-08T23:36:40.734Z,102274.06
2023-04-08T23:39:07.219Z,102274.31
2023-04-08T23:41:33.720Z,102272.50
2023-04-08T23:44:00.246Z,102277.81
2023-04-08T23:46:26.788Z,102281.31
2023-04-08T23:48:54.769Z,102272.88
2023-04-08T23:51:21.460Z,102274.44
2023-04-08T23:53:47.938Z,102276.38
2023-04-08T23:56:14.427Z,102278.06
2023-04-08T23:58:40.922Z,102272.88
